createdAt,value
2018-04-16T00:00:31.251Z,19.3
2018-04-16T00:01:32.817Z,19.1
2018-04-16T00:02:34.188Z,19.3
2018-04-16T00:03:35.563Z,19.3
2018-04-16T00:04:37.055Z,19.3
2018-04-16T00:05:38.431Z,19.2
2018-04-16T00:06:39.876Z,19.2
2018-04-16T00:07:41.430Z,19.2
2018-04-16T00:08:42.864Z,19.2
2018-04-16T00:09:44.583Z,19.2
2018-04-16T00:10:46.092Z,19
2018-04-16T00:11:47.582Z,19.1
2018-04-16T00:12:49.022Z,19.1
2018-04-16T00:13:50.604Z,19.1
2018-04-16T00:14:52.298Z,19.1
2018-04-16T00:15:53.827Z,19.1
2018-04-16T00:16:55.189Z,19.1
2018-04-16T00:17:56.557Z,19.1
2018-04-16T00:18:57.924Z,19.1
2018-04-16T00:19:59.301Z,19.1
2018-04-16T00:21:00.700Z,19.1
2018-04-16T00:22:02.292Z,19
2018-04-16T00:23:03.693Z,19.1
2018-04-16T00:24:05.050Z,19.1
2018-04-16T00:25:06.455Z,19.1
2018-04-16T00:26:07.827Z,19.1
2018-04-16T00:27:09.172Z,19.1
2018-04-16T00:28:10.558Z,19.1
2018-04-16T00:29:11.919Z,19.1
2018-04-16T00:30:13.479Z,19
2018-04-16T00:31:14.805Z,19
2018-04-16T00:32:16.166Z,18.9
2018-04-16T00:33:17.552Z,18.9
2018-04-16T00:34:18.940Z,19
2018-04-16T00:35:20.372Z,19
2018-04-16T00:36:21.715Z,19
2018-04-16T00:37:23.086Z,19
2018-04-16T00:38:24.448Z,19
2018-04-16T00:39:25.785Z,19
2018-04-16T00:40:27.167Z,19
2018-04-16T00:41:28.589Z,19
2018-04-16T00:42:30.003Z,19
2018-04-16T00:43:31.375Z,19
2018-04-16T00:44:32.761Z,19
2018-04-16T00:45:34.245Z,18.9
2018-04-16T00:46:35.583Z,18.9
2018-04-16T00:47:36.956Z,18.9
2018-04-16T00:48:38.797Z,18.9
2018-04-16T00:49:40.252Z,18.9
2018-04-16T00:50:41.777Z,18.9
2018-04-16T00:51:43.151Z,18.9
2018-04-16T00:52:44.511Z,18.9
2018-04-16T00:53:45.896Z,18.9
2018-04-16T00:54:47.260Z,18.9
2018-04-16T00:55:48.694Z,18.8
2018-04-16T00:56:50.147Z,18.8
2018-04-16T00:57:51.693Z,18.8
2018-04-16T00:58:53.048Z,18.8
2018-04-16T00:59:54.425Z,18.7
2018-04-16T01:00:55.856Z,18.8
2018-04-16T01:01:57.266Z,18.8
2018-04-16T01:02:58.669Z,18.7
2018-04-16T01:04:00.094Z,18.8
2018-04-16T01:05:01.618Z,18.8
2018-04-16T01:06:03.124Z,18.8
2018-04-16T01:07:04.651Z,18.6
2018-04-16T01:08:06.161Z,18.7
2018-04-16T01:09:07.591Z,18.7
2018-04-16T01:10:09.045Z,18.7
2018-04-16T01:11:10.618Z,18.7
2018-04-16T01:12:12.106Z,18.7
2018-04-16T01:13:13.604Z,18.7
2018-04-16T01:14:15.112Z,18.7
2018-04-16T01:15:16.452Z,18.7
2018-04-16T01:16:17.839Z,18.7
2018-04-16T01:17:19.225Z,18.7
2018-04-16T01:18:20.604Z,18.7
2018-04-16T01:19:21.936Z,18.7
2018-04-16T01:20:23.300Z,18.6
2018-04-16T01:21:24.729Z,18.6
2018-04-16T01:22:26.067Z,18.6
2018-04-16T01:23:27.425Z,18.6
2018-04-16T01:24:28.758Z,18.6
2018-04-16T01:25:30.136Z,18.6
2018-04-16T01:26:31.588Z,18.6
2018-04-16T01:27:32.968Z,18.6
2018-04-16T01:28:34.326Z,18.6
2018-04-16T01:29:35.687Z,18.6
2018-04-16T01:30:37.007Z,18.6
2018-04-16T01:31:38.396Z,18.6
2018-04-16T01:32:39.738Z,18.6
2018-04-16T01:33:41.101Z,18.6
2018-04-16T01:34:42.427Z,18.6
2018-04-16T01:35:43.809Z,18.6
2018-04-16T01:36:45.209Z,18.6
2018-04-16T01:37:46.934Z,18.6
2018-04-16T01:38:48.278Z,18.6
2018-04-16T01:39:49.657Z,18.5
2018-04-16T01:40:51.039Z,18.5
2018-04-16T01:41:52.404Z,18.5
2018-04-16T01:42:53.749Z,18.5
2018-04-16T01:43:55.082Z,18.5
2018-04-16T01:44:56.441Z,18.5
2018-04-16T01:45:57.784Z,18.4
2018-04-16T01:46:59.196Z,18.4
2018-04-16T01:48:00.547Z,18.4
2018-04-16T01:49:01.929Z,18.4
2018-04-16T01:50:03.279Z,18.4
2018-04-16T01:51:04.652Z,18.5
2018-04-16T01:52:06.077Z,18.4
2018-04-16T01:53:07.413Z,18.4
2018-04-16T01:54:08.779Z,18.4
2018-04-16T01:55:10.168Z,18.4
2018-04-16T01:56:11.568Z,18.4
2018-04-16T01:57:12.933Z,18.4
2018-04-16T01:58:14.289Z,18.4
2018-04-16T01:59:15.621Z,18.4
2018-04-16T02:00:17.008Z,18.4
2018-04-16T02:01:18.345Z,18.4
2018-04-16T02:02:20.061Z,18.4
2018-04-16T02:03:21.517Z,18.4
2018-04-16T02:04:22.964Z,18.4
2018-04-16T02:05:24.372Z,18.4
2018-04-16T02:06:25.946Z,18.4
2018-04-16T02:07:27.583Z,18.3
2018-04-16T02:08:29.135Z,18.4
2018-04-16T02:09:30.696Z,18.4
2018-04-16T02:10:32.227Z,18.3
2018-04-16T02:11:33.903Z,18.3
2018-04-16T02:12:37.568Z,18.3
2018-04-16T02:13:39.102Z,18.3
2018-04-16T02:14:40.589Z,18.3
2018-04-16T02:15:42.059Z,18.3
2018-04-16T02:16:43.500Z,18.3
2018-04-16T02:17:45.024Z,18.3
2018-04-16T02:18:46.381Z,18.3
2018-04-16T02:19:47.737Z,18.3
2018-04-16T02:20:49.104Z,18.3
2018-04-16T02:21:50.460Z,18.3
2018-04-16T02:22:51.913Z,18.2
2018-04-16T02:23:53.264Z,18.2
2018-04-16T02:24:54.783Z,18.2
2018-04-16T02:25:56.308Z,18.2
2018-04-16T02:26:57.991Z,18.2
2018-04-16T02:27:59.445Z,18.2
2018-04-16T02:29:00.814Z,18.2
2018-04-16T02:30:02.539Z,18.2
2018-04-16T02:31:03.905Z,18.2
2018-04-16T02:32:08.028Z,18.2
2018-04-16T02:33:09.508Z,18.2
2018-04-16T02:34:10.884Z,18.2
2018-04-16T02:35:12.292Z,18.2
2018-04-16T02:36:13.658Z,18.2
2018-04-16T02:37:15.012Z,18.2
2018-04-16T02:38:16.451Z,18.2
2018-04-16T02:39:17.737Z,18.1
2018-04-16T02:40:19.065Z,18.1
2018-04-16T02:41:20.454Z,18.1
2018-04-16T02:42:21.832Z,18.1
2018-04-16T02:43:23.228Z,18.1
2018-04-16T02:44:24.589Z,18.1
2018-04-16T02:45:25.951Z,18.1
2018-04-16T02:46:27.305Z,18.1
2018-04-16T02:47:28.668Z,18.1
2018-04-16T02:48:30.105Z,18.1
2018-04-16T02:49:31.663Z,18.1
2018-04-16T02:50:33.067Z,18.1
2018-04-16T02:51:34.405Z,18.1
2018-04-16T02:52:35.756Z,18.1
2018-04-16T02:53:37.133Z,18.1
2018-04-16T02:54:38.507Z,18.1
2018-04-16T02:55:39.859Z,18
2018-04-16T02:56:41.197Z,18
2018-04-16T02:57:42.590Z,18
2018-04-16T02:58:44.056Z,18
2018-04-16T02:59:45.453Z,18
2018-04-16T03:00:46.828Z,18
2018-04-16T03:01:48.203Z,18
2018-04-16T03:02:49.655Z,18
2018-04-16T03:03:51.112Z,18
2018-04-16T03:04:52.529Z,18
2018-04-16T03:05:53.896Z,18
2018-04-16T03:06:55.244Z,18
2018-04-16T03:07:56.683Z,17.9
2018-04-16T03:08:58.169Z,18
2018-04-16T03:10:01.090Z,18
2018-04-16T03:11:05.291Z,18
2018-04-16T03:12:06.738Z,18
2018-04-16T03:13:08.205Z,18
2018-04-16T03:14:09.753Z,18
2018-04-16T03:15:11.228Z,18
2018-04-16T03:16:12.700Z,18
2018-04-16T03:17:14.352Z,17.9
2018-04-16T03:18:15.789Z,17.8
2018-04-16T03:19:17.472Z,17.9
2018-04-16T03:20:18.927Z,17.9
2018-04-16T03:21:20.368Z,17.8
2018-04-16T03:22:22.040Z,17.9
2018-04-16T03:23:23.616Z,17.9
2018-04-16T03:24:25.065Z,17.9
2018-04-16T03:25:26.417Z,17.9
2018-04-16T03:26:27.772Z,17.9
2018-04-16T03:27:29.120Z,17.9
2018-04-16T03:28:30.480Z,17.9
2018-04-16T03:29:31.874Z,17.9
2018-04-16T03:30:33.233Z,17.8
2018-04-16T03:31:34.585Z,17.7
2018-04-16T03:32:35.947Z,17.8
2018-04-16T03:33:37.277Z,17.8
2018-04-16T03:34:38.718Z,17.8
2018-04-16T03:35:40.064Z,17.8
2018-04-16T03:36:41.392Z,17.8
2018-04-16T03:37:44.919Z,17.7
2018-04-16T03:38:46.317Z,17.7
2018-04-16T03:39:47.712Z,17.7
2018-04-16T03:40:49.049Z,17.7
2018-04-16T03:41:50.418Z,17.7
2018-04-16T03:42:51.795Z,17.7
2018-04-16T03:43:53.193Z,17.7
2018-04-16T03:44:54.584Z,17.7
2018-04-16T03:45:55.933Z,17.7
2018-04-16T03:46:57.268Z,17.7
2018-04-16T03:47:58.655Z,17.7
2018-04-16T03:48:59.985Z,17.6
2018-04-16T03:50:01.433Z,17.7
2018-04-16T03:51:02.825Z,17.7
2018-04-16T03:52:04.153Z,17.7
2018-04-16T03:53:05.501Z,17.7
2018-04-16T03:54:07.045Z,17.7
2018-04-16T03:55:08.466Z,17.7
2018-04-16T03:56:09.864Z,17.6
2018-04-16T03:57:12.418Z,17.6
2018-04-16T03:58:14.840Z,17.6
2018-04-16T03:59:16.257Z,17.6
2018-04-16T04:00:17.693Z,17.6
2018-04-16T04:01:19.573Z,17.5
2018-04-16T04:02:21.025Z,17.6
2018-04-16T04:03:22.455Z,17.5
2018-04-16T04:04:23.853Z,17.6
2018-04-16T04:05:25.290Z,17.6
2018-04-16T04:06:26.652Z,17.6
2018-04-16T04:07:28.012Z,17.6
2018-04-16T04:08:29.462Z,17.6
2018-04-16T04:09:30.889Z,17.6
2018-04-16T04:10:32.367Z,17.6
2018-04-16T04:11:33.706Z,17.5
2018-04-16T04:12:35.121Z,17.5
2018-04-16T04:13:36.471Z,17.5
2018-04-16T04:14:37.899Z,17.6
2018-04-16T04:15:39.353Z,17.5
2018-04-16T04:16:40.857Z,17.5
2018-04-16T04:17:42.720Z,17.5
2018-04-16T04:18:44.100Z,17.5
2018-04-16T04:19:45.580Z,17.5
2018-04-16T04:20:47.230Z,17.4
2018-04-16T04:21:48.708Z,17.5
2018-04-16T04:22:50.210Z,17.5
2018-04-16T04:23:51.854Z,17.5
2018-04-16T04:24:53.541Z,17.5
2018-04-16T04:25:55.033Z,17.5
2018-04-16T04:26:56.373Z,17.4
2018-04-16T04:27:57.758Z,17.4
2018-04-16T04:28:59.145Z,17.5
2018-04-16T04:30:00.510Z,17.4
2018-04-16T04:31:01.961Z,17.4
2018-04-16T04:32:03.380Z,17.3
2018-04-16T04:33:04.753Z,17.4
2018-04-16T04:34:06.172Z,17.4
2018-04-16T04:35:07.659Z,17.4
2018-04-16T04:36:09.122Z,17.4
2018-04-16T04:37:10.487Z,17.4
2018-04-16T04:38:11.849Z,17.4
2018-04-16T04:39:13.271Z,17.4
2018-04-16T04:40:14.664Z,17.4
2018-04-16T04:41:16.071Z,17.4
2018-04-16T04:42:17.482Z,17.4
2018-04-16T04:43:19.953Z,17.4
2018-04-16T04:44:21.344Z,17.4
2018-04-16T04:45:22.802Z,17.4
2018-04-16T04:46:24.276Z,17.3
2018-04-16T04:47:25.671Z,17.3
2018-04-16T04:48:27.026Z,17.3
2018-04-16T04:49:28.386Z,17.3
2018-04-16T04:50:29.833Z,17.3
2018-04-16T04:51:31.642Z,17.3
2018-04-16T04:52:36.093Z,17.3
2018-04-16T04:53:37.422Z,17.3
2018-04-16T04:54:38.776Z,17.3
2018-04-16T04:55:40.129Z,17.3
2018-04-16T04:56:41.521Z,17.2
2018-04-16T04:57:45.650Z,17.3
2018-04-16T04:58:49.273Z,17.3
2018-04-16T04:59:50.677Z,17.3
2018-04-16T05:00:52.029Z,17.3
2018-04-16T05:01:53.570Z,17.3
2018-04-16T05:02:55.007Z,17.2
2018-04-16T05:03:56.383Z,17.2
2018-04-16T05:04:57.749Z,17.3
2018-04-16T05:05:59.136Z,17.2
2018-04-16T05:07:00.670Z,17.2
2018-04-16T05:08:02.020Z,17.2
2018-04-16T05:09:03.450Z,17.2
2018-04-16T05:10:04.908Z,17.2
2018-04-16T05:11:06.278Z,17.2
2018-04-16T05:12:09.124Z,17.2
2018-04-16T05:13:10.549Z,17.2
2018-04-16T05:14:11.899Z,17.2
2018-04-16T05:15:14.690Z,17.2
2018-04-16T05:16:16.111Z,17.2
2018-04-16T05:17:17.524Z,17.2
2018-04-16T05:18:18.996Z,17.2
2018-04-16T05:19:20.420Z,17.2
2018-04-16T05:20:21.825Z,17.2
2018-04-16T05:21:23.364Z,17.2
2018-04-16T05:22:26.821Z,17.2
2018-04-16T05:23:31.184Z,17.1
2018-04-16T05:24:32.590Z,17.2
2018-04-16T05:25:34.044Z,17.2
2018-04-16T05:26:35.404Z,17.2
2018-04-16T05:27:36.809Z,17.2
2018-04-16T05:28:38.150Z,17.1
2018-04-16T05:29:39.523Z,17.1
2018-04-16T05:30:40.880Z,17.1
2018-04-16T05:31:42.391Z,17.1
2018-04-16T05:32:43.887Z,17.1
2018-04-16T05:33:45.389Z,17.1
2018-04-16T05:34:47.001Z,17.1
2018-04-16T05:35:49.997Z,17.2
2018-04-16T05:36:51.735Z,17
2018-04-16T05:37:53.294Z,17.1
2018-04-16T05:38:55.066Z,17.1
2018-04-16T05:39:56.672Z,17.1
2018-04-16T05:40:58.250Z,17.1
2018-04-16T05:41:59.888Z,17.1
2018-04-16T05:43:01.744Z,17.1
2018-04-16T05:44:03.465Z,17.1
2018-04-16T05:45:06.468Z,17.1
2018-04-16T05:46:12.222Z,17.1
2018-04-16T05:47:17.515Z,17.2
2018-04-16T05:48:19.299Z,17.1
2018-04-16T05:49:20.943Z,17.1
2018-04-16T05:50:22.590Z,17.1
2018-04-16T05:51:27.809Z,17.1
2018-04-16T05:52:29.555Z,17.1
2018-04-16T05:53:31.351Z,17.1
2018-04-16T05:54:33.095Z,17
2018-04-16T05:55:35.115Z,17.2
2018-04-16T05:56:38.328Z,17.4
2018-04-16T05:57:40.290Z,17.4
2018-04-16T05:58:41.856Z,17.5
2018-04-16T05:59:43.371Z,17.6
2018-04-16T06:00:45.012Z,17.7
2018-04-16T06:01:46.698Z,17.6
2018-04-16T06:02:53.319Z,17.8
2018-04-16T06:03:55.175Z,17.8
2018-04-16T06:04:56.817Z,17.8
2018-04-16T06:05:58.846Z,17.8
2018-04-16T06:07:00.350Z,17.8
2018-04-16T06:08:02.015Z,17.8
2018-04-16T06:09:03.643Z,17.8
2018-04-16T06:10:05.159Z,17.8
2018-04-16T06:11:06.596Z,17.9
2018-04-16T06:12:08.058Z,17.8
2018-04-16T06:13:09.525Z,17.9
2018-04-16T06:14:10.959Z,17.9
2018-04-16T06:15:12.356Z,17.6
2018-04-16T06:16:13.829Z,17.9
2018-04-16T06:17:15.223Z,18
2018-04-16T06:18:16.642Z,18
2018-04-16T06:19:18.111Z,18
2018-04-16T06:20:19.552Z,18
2018-04-16T06:21:20.932Z,18
2018-04-16T06:22:22.341Z,18
2018-04-16T06:23:23.891Z,18
2018-04-16T06:24:30.578Z,18.1
2018-04-16T06:25:33.372Z,18.1
2018-04-16T06:26:34.743Z,18.2
2018-04-16T06:27:36.207Z,18.3
2018-04-16T06:28:37.640Z,18.2
2018-04-16T06:29:39.211Z,18.2
2018-04-16T06:30:40.619Z,18.3
2018-04-16T06:31:41.988Z,18.2
2018-04-16T06:32:43.394Z,18.2
2018-04-16T06:33:44.845Z,18.3
2018-04-16T06:34:46.474Z,18.3
2018-04-16T06:35:47.858Z,18.3
2018-04-16T06:36:49.391Z,18.4
2018-04-16T06:37:50.800Z,18.5
2018-04-16T06:38:52.189Z,18.5
2018-04-16T06:39:53.637Z,18.5
2018-04-16T06:40:55.031Z,18.5
2018-04-16T06:41:56.423Z,18.5
2018-04-16T06:42:57.793Z,18.6
2018-04-16T06:43:59.215Z,18.5
2018-04-16T06:45:00.682Z,18.6
2018-04-16T06:46:02.269Z,18.6
2018-04-16T06:47:03.802Z,18.6
2018-04-16T06:48:05.361Z,18.7
2018-04-16T06:49:06.957Z,18.7
2018-04-16T06:50:08.529Z,18.7
2018-04-16T06:51:09.932Z,18.7
2018-04-16T06:52:11.365Z,18.8
2018-04-16T06:53:12.796Z,18.8
2018-04-16T06:54:14.263Z,18.8
2018-04-16T06:55:17.323Z,18.8
2018-04-16T06:56:18.680Z,18.8
2018-04-16T06:57:20.075Z,18.9
2018-04-16T06:58:21.480Z,18.9
2018-04-16T06:59:25.784Z,18.9
2018-04-16T07:00:27.284Z,18.9
2018-04-16T07:01:28.758Z,19
2018-04-16T07:02:30.184Z,19
2018-04-16T07:03:33.006Z,19
2018-04-16T07:04:34.487Z,19.1
2018-04-16T07:05:36.044Z,19.1
2018-04-16T07:06:37.508Z,19.1
2018-04-16T07:07:41.808Z,19.1
2018-04-16T07:08:43.259Z,19.1
2018-04-16T07:09:44.769Z,19.1
2018-04-16T07:10:48.676Z,19.2
2018-04-16T07:11:50.104Z,19.2
2018-04-16T07:12:51.548Z,19.2
2018-04-16T07:13:52.979Z,19.2
2018-04-16T07:14:54.443Z,19.2
2018-04-16T07:15:56.814Z,19.3
2018-04-16T07:16:58.240Z,19.3
2018-04-16T07:17:59.631Z,19.2
2018-04-16T07:19:01.217Z,19.4
2018-04-16T07:20:05.509Z,19.4
2018-04-16T07:21:06.997Z,19.4
2018-04-16T07:22:08.454Z,19.4
2018-04-16T07:23:11.838Z,19.3
2018-04-16T07:24:13.810Z,19.4
2018-04-16T07:25:15.263Z,19.4
2018-04-16T07:26:16.880Z,19.4
2018-04-16T07:27:18.766Z,19.5
2018-04-16T07:28:23.067Z,19.5
2018-04-16T07:29:24.617Z,19.5
2018-04-16T07:30:26.527Z,19.6
2018-04-16T07:31:28.331Z,19.6
2018-04-16T07:32:30.962Z,19.6
2018-04-16T07:33:32.742Z,19.6
2018-04-16T07:34:34.553Z,19.7
2018-04-16T07:35:36.214Z,19.7
2018-04-16T07:36:44.877Z,19.7
2018-04-16T07:37:46.492Z,19.7
2018-04-16T07:38:50.377Z,19.7
2018-04-16T07:39:51.877Z,19.7
2018-04-16T07:40:53.398Z,19.8
2018-04-16T07:41:55.704Z,19.8
2018-04-16T07:42:57.356Z,19.8
2018-04-16T07:44:01.816Z,19.9
2018-04-16T07:45:03.350Z,19.9
2018-04-16T07:46:04.933Z,19.9
2018-04-16T07:47:06.975Z,19.9
2018-04-16T07:48:08.686Z,19.9
2018-04-16T07:49:10.294Z,20
2018-04-16T07:50:12.026Z,20
2018-04-16T07:51:16.176Z,20
2018-04-16T07:52:18.386Z,20.1
2018-04-16T07:53:19.986Z,20
2018-04-16T07:54:21.721Z,20.1
2018-04-16T07:55:23.410Z,20.1
2018-04-16T07:56:25.369Z,20.1
2018-04-16T07:57:26.995Z,20.2
2018-04-16T07:58:28.560Z,20.2
2018-04-16T07:59:30.161Z,20.2
2018-04-16T08:00:34.883Z,20.2
2018-04-16T08:01:36.619Z,20.2
2018-04-16T08:02:38.261Z,20.2
2018-04-16T08:03:39.841Z,20.3
2018-04-16T08:04:41.380Z,20.4
2018-04-16T08:05:42.987Z,20.4
2018-04-16T08:06:44.857Z,20.4
2018-04-16T08:07:46.442Z,20.4
2018-04-16T08:08:48.013Z,20.5
2018-04-16T08:09:49.390Z,20.5
2018-04-16T08:10:50.844Z,20.5
2018-04-16T08:11:52.373Z,20.5
2018-04-16T08:12:55.075Z,20.5
2018-04-16T08:13:58.503Z,20.6
2018-04-16T08:15:02.410Z,20.5
2018-04-16T08:16:04.389Z,20.6
2018-04-16T08:17:05.788Z,20.6
2018-04-16T08:18:07.242Z,20.6
2018-04-16T08:19:08.667Z,20.6
2018-04-16T08:20:12.131Z,20.7
2018-04-16T08:21:13.616Z,20.7
2018-04-16T08:22:15.266Z,20.7
2018-04-16T08:23:16.663Z,20.7
2018-04-16T08:24:18.049Z,20.8
2018-04-16T08:25:19.429Z,20.7
2018-04-16T08:26:31.843Z,20.9
2018-04-16T08:27:33.415Z,20.9
2018-04-16T08:28:35.080Z,20.9
2018-04-16T08:29:36.563Z,20.9
2018-04-16T08:30:37.964Z,21
2018-04-16T08:31:39.414Z,21
2018-04-16T08:32:41.180Z,21
2018-04-16T08:33:44.819Z,21
2018-04-16T08:34:46.305Z,20.8
2018-04-16T08:35:47.799Z,21
2018-04-16T08:36:49.194Z,21
2018-04-16T08:37:50.579Z,21.1
2018-04-16T08:38:52.256Z,21.1
2018-04-16T08:39:53.683Z,21.1
2018-04-16T08:40:57.908Z,21.2
2018-04-16T08:41:59.348Z,21.2
2018-04-16T08:43:00.748Z,21.2
2018-04-16T08:44:02.237Z,21.1
2018-04-16T08:45:06.324Z,21.2
2018-04-16T08:46:07.830Z,21.3
2018-04-16T08:47:09.224Z,21.3
2018-04-16T08:48:10.709Z,21.3
2018-04-16T08:49:12.104Z,21.3
2018-04-16T08:50:13.496Z,21.3
2018-04-16T08:51:14.989Z,21.3
2018-04-16T08:52:16.416Z,21.4
2018-04-16T08:53:21.990Z,21.4
2018-04-16T08:54:23.535Z,21.4
2018-04-16T08:55:24.945Z,21.4
2018-04-16T08:56:26.564Z,21.5
2018-04-16T08:57:27.971Z,21.5
2018-04-16T08:58:29.517Z,21.5
2018-04-16T08:59:31.000Z,21.5
2018-04-16T09:00:32.431Z,21.6
2018-04-16T09:01:33.842Z,21.6
2018-04-16T09:02:35.365Z,21.6
2018-04-16T09:03:36.724Z,21.6
2018-04-16T09:04:38.184Z,21.6
2018-04-16T09:05:39.620Z,21.7
2018-04-16T09:06:41.003Z,21.7
2018-04-16T09:07:42.416Z,21.6
2018-04-16T09:08:45.231Z,21.7
2018-04-16T09:09:46.694Z,21.8
2018-04-16T09:10:48.105Z,21.8
2018-04-16T09:11:49.566Z,21.8
2018-04-16T09:12:50.915Z,21.8
2018-04-16T09:13:52.367Z,21.9
2018-04-16T09:14:53.878Z,21.9
2018-04-16T09:15:55.525Z,21.9
2018-04-16T09:16:57.066Z,21.9
2018-04-16T09:17:58.668Z,21.9
2018-04-16T09:19:00.198Z,21.9
2018-04-16T09:20:03.885Z,22
2018-04-16T09:21:08.174Z,21.9
2018-04-16T09:22:09.696Z,21.9
2018-04-16T09:23:11.236Z,21.9
2018-04-16T09:24:12.685Z,22
2018-04-16T09:25:14.131Z,21.9
2018-04-16T09:26:17.777Z,22
2018-04-16T09:27:21.613Z,21.9
2018-04-16T09:28:23.506Z,22.1
2018-04-16T09:29:25.144Z,22
2018-04-16T09:30:26.722Z,22.1
2018-04-16T09:31:28.166Z,22.1
2018-04-16T09:32:29.568Z,22.1
2018-04-16T09:33:30.985Z,22.2
2018-04-16T09:34:36.636Z,22.2
2018-04-16T09:35:38.137Z,22.2
2018-04-16T09:36:39.581Z,22.3
2018-04-16T09:37:40.997Z,22.2
2018-04-16T09:38:42.441Z,22.3
2018-04-16T09:39:43.789Z,22.3
2018-04-16T09:40:45.345Z,22.3
2018-04-16T09:41:47.284Z,22.3
2018-04-16T09:42:48.871Z,22.3
2018-04-16T09:43:50.313Z,22.4
2018-04-16T09:44:51.716Z,22.4
2018-04-16T09:45:53.371Z,22.3
2018-04-16T09:46:54.993Z,22.4
2018-04-16T09:47:59.811Z,22.4
2018-04-16T09:49:01.481Z,22.5
2018-04-16T09:50:08.374Z,22.3
2018-04-16T09:51:09.862Z,22.4
2018-04-16T09:52:11.468Z,22.5
2018-04-16T09:53:13.170Z,22.5
2018-04-16T09:54:14.969Z,22.5
2018-04-16T09:55:16.495Z,22.6
2018-04-16T09:56:27.009Z,22.6
2018-04-16T09:57:31.382Z,22.6
2018-04-16T09:58:32.944Z,22.6
2018-04-16T09:59:34.470Z,22.6
2018-04-16T10:00:35.965Z,22.6
2018-04-16T10:01:39.958Z,22.6
2018-04-16T10:02:41.447Z,22.6
2018-04-16T10:03:42.872Z,22.6
2018-04-16T10:04:44.575Z,22.7
2018-04-16T10:05:46.053Z,22.7
2018-04-16T10:06:49.142Z,22.7
2018-04-16T10:07:50.653Z,22.7
2018-04-16T10:08:52.117Z,22.7
2018-04-16T10:09:53.672Z,22.7
2018-04-16T10:10:56.772Z,22.6
2018-04-16T10:11:58.376Z,22.8
2018-04-16T10:12:59.937Z,22.8
2018-04-16T10:14:01.462Z,22.8
2018-04-16T10:15:05.750Z,22.8
2018-04-16T10:16:07.187Z,22.8
2018-04-16T10:17:11.172Z,22.9
2018-04-16T10:18:18.497Z,22.8
2018-04-16T10:19:20.125Z,22.9
2018-04-16T10:20:21.502Z,22.9
2018-04-16T10:21:22.870Z,22.9
2018-04-16T10:22:24.476Z,22.9
2018-04-16T10:23:26.078Z,22.9
2018-04-16T10:24:27.663Z,22.9
2018-04-16T10:25:31.682Z,23
2018-04-16T10:26:33.157Z,22.9
2018-04-16T10:27:34.796Z,23
2018-04-16T10:28:36.312Z,23
2018-04-16T10:29:38.212Z,23
2018-04-16T10:30:40.042Z,22.8
2018-04-16T10:31:41.768Z,23
2018-04-16T10:32:43.956Z,23
2018-04-16T10:33:47.724Z,23.1
2018-04-16T10:34:49.349Z,23.1
2018-04-16T10:35:53.188Z,23
2018-04-16T10:36:54.852Z,23.1
2018-04-16T10:37:58.792Z,23.1
2018-04-16T10:39:00.271Z,23.2
2018-04-16T10:40:04.653Z,23.2
2018-04-16T10:41:06.203Z,23.2
2018-04-16T10:42:07.846Z,23.1
2018-04-16T10:43:09.470Z,23.2
2018-04-16T10:44:11.221Z,23.2
2018-04-16T10:45:13.278Z,23.1
2018-04-16T10:46:15.110Z,23.3
2018-04-16T10:47:16.659Z,23.3
2018-04-16T10:48:18.320Z,23.3
2018-04-16T10:49:29.227Z,23.3
2018-04-16T10:50:30.662Z,23.3
2018-04-16T10:51:32.224Z,23.3
2018-04-16T10:52:33.645Z,23.3
2018-04-16T10:53:35.168Z,23.4
2018-04-16T10:54:37.074Z,23.3
2018-04-16T10:55:39.035Z,23.4
2018-04-16T10:56:50.900Z,23.4
2018-04-16T10:57:52.579Z,23.4
2018-04-16T10:58:54.265Z,23.5
2018-04-16T10:59:55.982Z,23.5
2018-04-16T11:00:58.687Z,23.4
2018-04-16T11:02:00.770Z,23.5
2018-04-16T11:03:03.464Z,23.5
2018-04-16T11:04:05.332Z,23.5
2018-04-16T11:05:06.852Z,23.6
2018-04-16T11:06:09.081Z,23.6
2018-04-16T11:07:10.672Z,23.6
2018-04-16T11:08:12.094Z,23.6
2018-04-16T11:09:16.368Z,23.6
2018-04-16T11:10:17.843Z,23.6
2018-04-16T11:11:19.529Z,23.6
2018-04-16T11:12:26.112Z,23.6
2018-04-16T11:13:27.895Z,23.5
2018-04-16T11:14:29.784Z,23.5
2018-04-16T11:15:31.574Z,23.6
2018-04-16T11:16:33.584Z,23.6
2018-04-16T11:17:38.669Z,23.6
2018-04-16T11:18:44.765Z,23.6
2018-04-16T11:19:46.320Z,23.7
2018-04-16T11:20:50.678Z,23.7
2018-04-16T11:21:52.290Z,23.7
2018-04-16T11:22:57.079Z,23.7
2018-04-16T11:23:58.599Z,23.6
2018-04-16T11:25:02.780Z,23.8
2018-04-16T11:26:11.481Z,23.7
2018-04-16T11:27:20.275Z,23.8
2018-04-16T11:28:21.786Z,23.8
2018-04-16T11:29:23.408Z,23.8
2018-04-16T11:30:25.148Z,23.8
2018-04-16T11:31:27.848Z,23.8
2018-04-16T11:32:29.382Z,23.8
2018-04-16T11:33:39.379Z,23.7
2018-04-16T11:34:40.779Z,23.8
2018-04-16T11:35:42.317Z,23.7
2018-04-16T11:36:43.977Z,23.7
2018-04-16T11:37:45.478Z,23.9
2018-04-16T11:38:46.927Z,23.9
2018-04-16T11:39:48.369Z,23.7
2018-04-16T11:40:52.720Z,23.8
2018-04-16T11:41:54.173Z,23.9
2018-04-16T11:42:55.708Z,23.8
2018-04-16T11:43:57.112Z,23.9
2018-04-16T11:44:58.623Z,23.9
2018-04-16T11:46:00.196Z,23.9
2018-04-16T11:47:04.420Z,23.9
2018-04-16T11:48:06.088Z,23.9
2018-04-16T11:49:07.537Z,23.9
2018-04-16T11:50:09.003Z,23.9
2018-04-16T11:51:10.525Z,24
2018-04-16T11:52:14.760Z,24
2018-04-16T11:53:16.394Z,23.9
2018-04-16T11:54:18.068Z,24
2018-04-16T11:55:19.568Z,24
2018-04-16T11:56:21.049Z,24
2018-04-16T11:57:22.542Z,24
2018-04-16T11:58:24.121Z,23.9
2018-04-16T11:59:26.602Z,24
2018-04-16T12:00:28.227Z,24
2018-04-16T12:01:29.900Z,24
2018-04-16T12:02:31.543Z,24.1
2018-04-16T12:03:33.092Z,24.1
2018-04-16T12:04:35.415Z,24.1
2018-04-16T12:05:36.884Z,24
2018-04-16T12:06:40.970Z,24.1
2018-04-16T12:07:42.523Z,24.1
2018-04-16T12:08:44.567Z,24.1
2018-04-16T12:09:46.788Z,24.2
2018-04-16T12:10:57.918Z,24.2
2018-04-16T12:11:59.549Z,24.2
2018-04-16T12:13:00.965Z,24.1
2018-04-16T12:14:02.556Z,24.2
2018-04-16T12:15:04.153Z,24.1
2018-04-16T12:16:06.109Z,24.2
2018-04-16T12:17:07.841Z,24.1
2018-04-16T12:18:09.357Z,24.1
2018-04-16T12:19:10.930Z,24.3
2018-04-16T12:20:12.367Z,24.3
2018-04-16T12:21:13.811Z,24.3
2018-04-16T12:22:18.735Z,24.3
2018-04-16T12:23:23.111Z,24.2
2018-04-16T12:24:24.563Z,24.4
2018-04-16T12:25:26.288Z,24.4
2018-04-16T12:26:28.099Z,24.4
2018-04-16T12:27:29.800Z,24.4
2018-04-16T12:28:31.304Z,24.3
2018-04-16T12:29:32.852Z,24.4
2018-04-16T12:30:34.242Z,24.4
2018-04-16T12:31:36.692Z,24.4
2018-04-16T12:32:38.203Z,24.4
2018-04-16T12:33:39.954Z,24.5
2018-04-16T12:34:41.469Z,24.5
2018-04-16T12:35:43.172Z,24.5
2018-04-16T12:36:44.673Z,24.5
2018-04-16T12:37:46.163Z,24.5
2018-04-16T12:38:48.164Z,24.5
2018-04-16T12:39:49.786Z,24.5
2018-04-16T12:40:52.857Z,24.5
2018-04-16T12:41:54.465Z,24.5
2018-04-16T12:42:56.307Z,24.5
2018-04-16T12:43:57.904Z,24.5
2018-04-16T12:44:59.535Z,24.5
2018-04-16T12:46:01.517Z,24.5
2018-04-16T12:47:03.173Z,24.4
2018-04-16T12:48:05.009Z,24.5
2018-04-16T12:49:07.322Z,24.5
2018-04-16T12:50:09.694Z,24.6
2018-04-16T12:51:13.215Z,24.5
2018-04-16T12:52:20.698Z,24.5
2018-04-16T12:53:23.697Z,24.5
2018-04-16T12:54:25.532Z,24.6
2018-04-16T12:55:29.836Z,24.5
2018-04-16T12:56:31.628Z,24.5
2018-04-16T12:57:36.464Z,24.6
2018-04-16T12:58:37.995Z,24.6
2018-04-16T12:59:39.444Z,24.6
2018-04-16T13:00:40.859Z,24.6
2018-04-16T13:01:50.181Z,24.6
2018-04-16T13:02:52.304Z,24.6
2018-04-16T13:03:53.755Z,24.6
2018-04-16T13:04:55.247Z,24.7
2018-04-16T13:05:56.696Z,24.7
2018-04-16T13:06:58.151Z,24.7
2018-04-16T13:07:59.607Z,24.7
2018-04-16T13:09:01.068Z,24.7
2018-04-16T13:10:03.009Z,24.8
2018-04-16T13:11:04.779Z,24.8
2018-04-16T13:12:06.844Z,24.8
2018-04-16T13:13:09.081Z,24.8
2018-04-16T13:14:13.297Z,24.8
2018-04-16T13:15:14.800Z,24.7
2018-04-16T13:16:16.671Z,24.7
2018-04-16T13:17:18.601Z,24.8
2018-04-16T13:18:20.204Z,24.7
2018-04-16T13:19:23.118Z,24.8
2018-04-16T13:20:25.314Z,24.8
2018-04-16T13:21:32.513Z,24.8
2018-04-16T13:22:33.984Z,24.8
2018-04-16T13:23:35.491Z,24.8
2018-04-16T13:24:37.978Z,24.9
2018-04-16T13:25:39.473Z,24.9
2018-04-16T13:26:40.888Z,24.9
2018-04-16T13:27:43.725Z,24.9
2018-04-16T13:28:45.697Z,24.9
2018-04-16T13:29:47.814Z,24.9
2018-04-16T13:30:49.395Z,24.9
2018-04-16T13:31:50.878Z,24.9
2018-04-16T13:32:52.573Z,24.9
2018-04-16T13:33:54.708Z,24.7
2018-04-16T13:34:57.131Z,24.9
2018-04-16T13:35:59.135Z,24.9
2018-04-16T13:37:03.523Z,24.9
2018-04-16T13:38:05.896Z,24.9
2018-04-16T13:39:07.746Z,24.9
2018-04-16T13:40:09.507Z,24.9
2018-04-16T13:41:11.141Z,24.9
2018-04-16T13:42:12.816Z,24.9
2018-04-16T13:43:14.749Z,24.9
2018-04-16T13:44:17.655Z,25
2018-04-16T13:45:20.568Z,25
2018-04-16T13:46:22.568Z,25
2018-04-16T13:47:24.364Z,24.9
2018-04-16T13:48:28.648Z,25
2018-04-16T13:49:30.204Z,25
2018-04-16T13:50:31.909Z,25